createdAt,value
2023-02-22T00:01:13.413Z,25.63
2023-02-22T00:03:13.266Z,25.52
2023-02-22T00:05:13.232Z,25.56
2023-02-22T00:07:12.987Z,25.60
2023-02-22T00:09:13.279Z,25.56
2023-02-22T00:11:13.000Z,25.56
2023-02-22T00:13:13.270Z,25.52
2023-02-22T00:15:13.243Z,25.62
2023-02-22T00:17:13.123Z,25.57
2023-02-22T00:19:13.238Z,25.52
2023-02-22T00:21:13.298Z,25.58
2023-02-22T00:23:13.293Z,25.57
2023-02-22T00:25:13.068Z,25.58
2023-02-22T00:27:13.234Z,25.56
2023-02-22T00:29:13.237Z,25.60
2023-02-22T00:31:13.259Z,25.61
2023-02-22T00:33:13.309Z,25.61
2023-02-22T00:35:13.032Z,25.57
2023-02-22T00:37:13.277Z,25.56
2023-02-22T00:39:13.247Z,25.60
2023-02-22T00:41:13.314Z,25.59
2023-02-22T00:43:13.044Z,25.58
2023-02-22T00:45:13.057Z,25.57
2023-02-22T00:47:13.284Z,25.61
2023-02-22T00:49:13.289Z,25.65
2023-02-22T00:51:13.003Z,25.58
2023-02-22T00:53:13.318Z,25.61
2023-02-22T00:55:13.278Z,25.73
2023-02-22T00:57:13.113Z,25.53
2023-02-22T00:59:13.107Z,25.52
2023-02-22T01:01:13.179Z,25.57
2023-02-22T01:03:13.291Z,25.57
2023-02-22T01:05:13.028Z,25.63
2023-02-22T01:07:13.110Z,25.58
2023-02-22T01:09:13.248Z,25.56
2023-02-22T01:11:13.407Z,25.56
2023-02-22T01:13:13.192Z,25.65
2023-02-22T01:15:13.320Z,25.63
2023-02-22T01:17:13.336Z,25.64
2023-02-22T01:19:13.109Z,25.55
2023-02-22T01:21:13.278Z,25.57
2023-02-22T01:23:13.261Z,25.65
2023-02-22T01:25:13.049Z,25.65
2023-02-22T01:27:13.103Z,25.65
2023-02-22T01:29:13.295Z,25.58
2023-02-22T01:31:13.291Z,25.65
2023-02-22T01:33:13.090Z,25.65
2023-02-22T01:35:13.156Z,25.60
2023-02-22T01:37:13.137Z,25.52
2023-02-22T01:39:13.132Z,25.56
2023-02-22T01:41:13.317Z,25.54
2023-02-22T01:43:13.375Z,25.61
2023-02-22T01:45:13.286Z,25.52
2023-02-22T01:47:13.312Z,25.57
2023-02-22T01:49:13.075Z,25.53
2023-02-22T01:51:13.180Z,25.52
2023-02-22T01:53:13.337Z,25.60
2023-02-22T01:55:13.381Z,25.54
2023-02-22T01:57:13.348Z,25.55
2023-02-22T01:59:13.373Z,25.57
2023-02-22T02:01:13.109Z,25.56
2023-02-22T02:03:13.480Z,25.60
2023-02-22T02:05:13.287Z,25.54
2023-02-22T02:07:13.396Z,25.61
2023-02-22T02:09:13.182Z,25.54
2023-02-22T02:11:13.372Z,25.64
2023-02-22T02:13:13.369Z,25.65
2023-02-22T02:15:13.202Z,25.58
2023-02-22T02:17:13.302Z,25.60
2023-02-22T02:19:13.314Z,25.57
2023-02-22T02:21:13.373Z,25.57
2023-02-22T02:23:13.408Z,25.60
2023-02-22T02:25:13.246Z,25.56
2023-02-22T02:27:13.168Z,25.56
2023-02-22T02:29:13.214Z,25.57
2023-02-22T02:31:13.136Z,25.52
2023-02-22T02:33:13.242Z,25.57
2023-02-22T02:35:13.442Z,25.56
2023-02-22T02:37:13.189Z,25.33
2023-02-22T02:39:13.358Z,25.58
2023-02-22T02:41:13.381Z,25.61
2023-02-22T02:43:13.408Z,25.57
2023-02-22T02:45:13.410Z,25.53
2023-02-22T02:47:13.484Z,25.61
2023-02-22T02:49:13.396Z,25.58
2023-02-22T02:51:13.225Z,25.56
2023-02-22T02:53:13.450Z,25.57
2023-02-22T02:55:13.239Z,25.65
2023-02-22T02:57:13.396Z,25.61
2023-02-22T02:59:13.445Z,25.58
2023-02-22T03:01:13.519Z,24.59
2023-02-22T03:03:13.238Z,24.38
2023-02-22T03:05:13.398Z,24.25
2023-02-22T03:07:13.452Z,24.10
2023-02-22T03:09:13.364Z,24.06
2023-02-22T03:11:13.428Z,24.05
2023-02-22T03:13:13.441Z,24.04
2023-02-22T03:15:13.231Z,24.04
2023-02-22T03:17:13.452Z,23.94
2023-02-22T03:19:13.403Z,23.98
2023-02-22T03:21:13.382Z,23.98
2023-02-22T03:23:13.399Z,23.94
2023-02-22T03:25:13.472Z,23.96
2023-02-22T03:27:13.268Z,23.96
2023-02-22T03:29:13.466Z,23.88
2023-02-22T03:31:13.437Z,23.93
2023-02-22T03:33:13.422Z,23.89
2023-02-22T03:35:13.476Z,23.96
2023-02-22T03:37:13.488Z,23.95
2023-02-22T03:39:13.402Z,23.87
2023-02-22T03:41:13.451Z,23.87
2023-02-22T03:43:13.259Z,23.84
2023-02-22T03:45:13.341Z,23.81
2023-02-22T03:47:13.239Z,23.84
2023-02-22T03:49:13.448Z,23.87
2023-02-22T03:51:15.580Z,23.81
2023-02-22T03:53:13.255Z,23.83
2023-02-22T03:55:13.465Z,23.82
2023-02-22T03:57:13.509Z,23.81
2023-02-22T03:59:13.447Z,23.82
2023-02-22T04:01:13.253Z,23.81
2023-02-22T04:03:13.520Z,23.80
2023-02-22T04:05:13.219Z,23.77
2023-02-22T04:07:13.239Z,23.81
2023-02-22T04:09:13.472Z,23.77
2023-02-22T04:11:13.600Z,23.76
2023-02-22T04:13:13.288Z,23.81
2023-02-22T04:15:13.263Z,23.79
2023-02-22T04:17:13.234Z,23.82
2023-02-22T04:19:13.514Z,23.81
2023-02-22T04:21:13.249Z,23.69
2023-02-22T04:23:13.478Z,23.78
2023-02-22T04:25:13.368Z,23.70
2023-02-22T04:27:13.518Z,23.65
2023-02-22T04:29:13.458Z,23.65
2023-02-22T04:31:13.269Z,23.66
2023-02-22T04:33:13.534Z,23.57
2023-02-22T04:35:13.515Z,23.58
2023-02-22T04:37:13.527Z,23.58
2023-02-22T04:39:13.496Z,23.54
2023-02-22T04:41:13.558Z,23.63
2023-02-22T04:43:13.385Z,23.53
2023-02-22T04:45:13.405Z,23.24
2023-02-22T04:47:13.539Z,23.47
2023-02-22T04:49:13.543Z,23.51
2023-02-22T04:51:13.516Z,23.50
2023-02-22T04:53:13.541Z,23.55
2023-02-22T04:55:13.584Z,23.53
2023-02-22T04:57:13.318Z,23.48
2023-02-22T04:59:13.558Z,23.53
2023-02-22T05:01:13.496Z,23.34
2023-02-22T05:03:13.523Z,23.25
2023-02-22T05:05:13.313Z,23.26
2023-02-22T05:07:13.369Z,23.28
2023-02-22T05:09:13.565Z,23.26
2023-02-22T05:11:13.483Z,23.20
2023-02-22T05:13:13.553Z,23.26
2023-02-22T05:15:13.567Z,23.25
2023-02-22T05:17:13.502Z,23.24
2023-02-22T05:19:13.526Z,23.20
2023-02-22T05:21:13.448Z,23.20
2023-02-22T05:23:13.594Z,23.19
2023-02-22T05:25:13.615Z,23.17
2023-02-22T05:27:13.587Z,23.15
2023-02-22T05:29:13.423Z,23.02
2023-02-22T05:31:13.587Z,23.24
2023-02-22T05:33:13.584Z,23.34
2023-02-22T05:35:13.269Z,23.39
2023-02-22T05:37:13.377Z,23.29
2023-02-22T05:39:13.597Z,23.31
2023-02-22T05:41:13.603Z,23.25
2023-02-22T05:43:13.579Z,23.25
2023-02-22T05:45:13.401Z,23.23
2023-02-22T05:47:13.661Z,23.33
2023-02-22T05:49:13.608Z,23.26
2023-02-22T05:51:13.600Z,23.23
2023-02-22T05:53:13.712Z,23.25
2023-02-22T05:55:13.561Z,23.25
2023-02-22T05:57:13.409Z,23.20
2023-02-22T05:59:13.448Z,23.20
2023-02-22T06:01:13.535Z,23.23
2023-02-22T06:03:13.663Z,23.22
2023-02-22T06:05:13.641Z,23.26
2023-02-22T06:07:13.451Z,23.18
2023-02-22T06:09:13.636Z,23.19
2023-02-22T06:11:13.584Z,23.18
2023-02-22T06:13:13.496Z,22.87
2023-02-22T06:15:13.431Z,23.25
2023-02-22T06:17:13.634Z,23.17
2023-02-22T06:19:13.597Z,23.27
2023-02-22T06:21:13.666Z,23.42
2023-02-22T06:23:13.573Z,23.26
2023-02-22T06:25:13.434Z,23.26
2023-02-22T06:27:13.644Z,23.27
2023-02-22T06:29:13.349Z,23.23
2023-02-22T06:31:13.732Z,23.29
2023-02-22T06:33:13.499Z,23.34
2023-02-22T06:35:13.549Z,23.26
2023-02-22T06:37:13.619Z,23.26
2023-02-22T06:39:13.411Z,23.37
2023-02-22T06:41:13.638Z,23.29
2023-02-22T06:43:13.649Z,23.27
2023-02-22T06:45:13.647Z,23.30
2023-02-22T06:47:13.720Z,23.26
2023-02-22T06:49:13.639Z,23.43
2023-02-22T06:51:13.464Z,23.41
2023-02-22T06:53:13.604Z,23.36
2023-02-22T06:55:13.269Z,23.41
2023-02-22T06:57:13.439Z,23.43
2023-02-22T06:59:13.670Z,23.40
2023-02-22T07:01:13.881Z,23.12
2023-02-22T07:03:13.777Z,23.39
2023-02-22T07:05:13.661Z,23.52
2023-02-22T07:07:13.650Z,23.51
2023-02-22T07:09:13.670Z,23.44
2023-02-22T07:11:13.659Z,23.49
2023-02-22T07:13:13.576Z,23.53
2023-02-22T07:15:13.647Z,23.77
2023-02-22T07:17:13.420Z,23.59
2023-02-22T07:19:13.662Z,23.66
2023-02-22T07:21:13.695Z,23.65
2023-02-22T07:23:13.894Z,23.72
2023-02-22T07:25:13.757Z,23.75
2023-02-22T07:27:13.798Z,23.81
2023-02-22T07:29:13.636Z,23.81
2023-02-22T07:31:13.792Z,23.83
2023-02-22T07:33:13.722Z,23.90
2023-02-22T07:35:13.581Z,24.04
2023-02-22T07:37:13.657Z,24.07
2023-02-22T07:39:13.575Z,23.97
2023-02-22T07:41:13.704Z,23.96
2023-02-22T07:43:13.555Z,23.96
2023-02-22T07:45:13.729Z,23.95
2023-02-22T07:47:13.717Z,24.10
2023-02-22T07:49:13.527Z,24.12
2023-02-22T07:51:13.714Z,24.11
2023-02-22T07:53:13.690Z,24.16
2023-02-22T07:55:13.690Z,24.23
2023-02-22T07:57:13.484Z,24.32
2023-02-22T07:59:13.640Z,24.29
2023-02-22T08:01:13.566Z,24.38
2023-02-22T08:03:13.815Z,24.39
2023-02-22T08:05:13.740Z,24.47
2023-02-22T08:07:13.591Z,24.51
2023-02-22T08:09:13.726Z,24.50
2023-02-22T08:11:13.689Z,24.66
2023-02-22T08:13:13.522Z,24.66
2023-02-22T08:15:13.745Z,24.67
2023-02-22T08:17:13.749Z,24.66
2023-02-22T08:19:13.762Z,24.77
2023-02-22T08:21:13.788Z,24.93
2023-02-22T08:23:13.869Z,24.97
2023-02-22T08:25:13.746Z,24.99
2023-02-22T08:27:13.764Z,25.11
2023-02-22T08:29:13.762Z,25.14
2023-02-22T08:31:13.669Z,25.27
2023-02-22T08:33:13.859Z,25.29
2023-02-22T08:35:13.727Z,25.33
2023-02-22T08:37:13.759Z,25.46
2023-02-22T08:39:13.787Z,25.92
2023-02-22T08:41:13.781Z,28.61
2023-02-22T08:43:13.790Z,26.22
2023-02-22T08:45:13.777Z,26.46
2023-02-22T08:47:13.816Z,25.10
2023-02-22T08:49:13.742Z,25.44
2023-02-22T08:51:13.796Z,24.98
2023-02-22T08:53:13.788Z,26.27
2023-02-22T08:55:13.610Z,24.95
2023-02-22T08:57:13.541Z,24.95
2023-02-22T08:59:13.847Z,24.95
2023-02-22T09:01:15.530Z,26.82
2023-02-22T09:03:13.769Z,24.90
2023-02-22T09:05:13.803Z,25.06
2023-02-22T09:07:13.807Z,24.97
2023-02-22T09:09:13.544Z,25.04
2023-02-22T09:11:13.728Z,24.96
2023-02-22T09:13:13.704Z,24.99
2023-02-22T09:15:13.826Z,24.87
2023-02-22T09:17:13.650Z,25.00
2023-02-22T09:19:13.532Z,25.05
2023-02-22T09:21:13.840Z,26.85
2023-02-22T09:23:13.847Z,25.09
2023-02-22T09:25:17.068Z,26.84
2023-02-22T09:27:13.830Z,25.16
2023-02-22T09:29:13.585Z,25.02
2023-02-22T09:31:13.849Z,25.09
2023-02-22T09:33:13.831Z,25.04
2023-02-22T09:35:13.689Z,25.00
2023-02-22T09:37:13.841Z,25.05
2023-02-22T09:39:13.833Z,25.10
2023-02-22T09:41:14.202Z,26.82
2023-02-22T09:43:13.871Z,25.12
2023-02-22T09:45:13.859Z,26.77
2023-02-22T09:47:13.832Z,26.02
2023-02-22T09:49:13.785Z,26.84
2023-02-22T09:51:13.599Z,25.05
2023-02-22T09:53:13.840Z,25.12
2023-02-22T09:55:13.840Z,24.99
2023-02-22T09:57:13.830Z,25.08
2023-02-22T09:59:13.875Z,24.93
2023-02-22T10:01:13.895Z,24.95
2023-02-22T10:03:13.627Z,25.00
2023-02-22T10:05:13.901Z,24.97
2023-02-22T10:07:13.817Z,26.77
2023-02-22T10:09:13.859Z,25.03
2023-02-22T10:11:13.791Z,26.93
2023-02-22T10:13:13.813Z,25.06
2023-02-22T10:15:13.849Z,25.91
2023-02-22T10:17:13.654Z,26.89
2023-02-22T10:19:13.881Z,25.21
2023-02-22T10:21:13.859Z,25.29
2023-02-22T10:23:13.626Z,25.30
2023-02-22T10:25:13.847Z,25.29
2023-02-22T10:27:13.900Z,25.23
2023-02-22T10:29:14.021Z,25.28
2023-02-22T10:31:13.760Z,26.79
2023-02-22T10:33:13.914Z,25.08
2023-02-22T10:35:13.863Z,26.78
2023-02-22T10:37:13.907Z,26.92
2023-02-22T10:39:13.906Z,24.74
2023-02-22T10:41:13.700Z,26.81
2023-02-22T10:43:13.650Z,25.37
2023-02-22T10:45:13.693Z,25.10
2023-02-22T10:47:14.369Z,24.96
2023-02-22T10:49:13.927Z,24.99
2023-02-22T10:51:13.894Z,24.98
2023-02-22T10:53:13.616Z,24.98
2023-02-22T10:55:15.282Z,25.00
2023-02-22T10:57:13.929Z,26.84
2023-02-22T10:59:13.716Z,25.09
2023-02-22T11:01:13.945Z,26.85
2023-02-22T11:03:13.901Z,25.09
2023-02-22T11:05:13.722Z,25.10
2023-02-22T11:07:13.900Z,26.68
2023-02-22T11:09:13.910Z,26.85
2023-02-22T11:11:13.817Z,25.00
2023-02-22T11:13:13.740Z,25.05
2023-02-22T11:15:13.951Z,24.95
2023-02-22T11:17:13.892Z,25.01
2023-02-22T11:19:13.924Z,25.00
2023-02-22T11:21:13.947Z,25.05
2023-02-22T11:23:13.970Z,25.12
2023-02-22T11:25:13.779Z,26.66
2023-02-22T11:27:13.991Z,26.81
2023-02-22T11:29:13.705Z,25.05
2023-02-22T11:31:14.019Z,25.04
2023-02-22T11:33:13.972Z,25.26
2023-02-22T11:35:14.006Z,25.29
2023-02-22T11:37:13.769Z,25.31
2023-02-22T11:39:14.056Z,25.39
2023-02-22T11:41:13.724Z,24.95
2023-02-22T11:45:13.746Z,24.95
2023-02-22T11:47:13.947Z,26.92
2023-02-22T11:49:13.985Z,25.01
2023-02-22T11:51:14.673Z,25.08
2023-02-22T11:53:13.893Z,26.53
2023-02-22T11:55:13.941Z,25.03
2023-02-22T11:57:13.742Z,24.95
2023-02-22T11:59:13.744Z,25.05
2023-02-22T12:01:14.000Z,24.96
2023-02-22T12:03:14.015Z,25.09
2023-02-22T12:05:13.757Z,25.10
2023-02-22T12:07:13.813Z,25.08
2023-02-22T12:09:14.181Z,25.10
2023-02-22T12:11:13.953Z,25.00
2023-02-22T12:13:13.991Z,26.99
2023-02-22T12:15:13.747Z,25.04
2023-02-22T12:17:13.795Z,25.05
2023-02-22T12:19:13.971Z,25.05
2023-02-22T12:21:13.799Z,25.07
2023-02-22T12:23:13.844Z,25.06
2023-02-22T12:25:14.012Z,25.04
2023-02-22T12:27:13.799Z,24.96
2023-02-22T12:29:13.996Z,25.09
2023-02-22T12:31:14.084Z,25.12
2023-02-22T12:33:13.983Z,25.21
2023-02-22T12:35:14.051Z,25.13
2023-02-22T12:37:14.048Z,26.92
2023-02-22T12:39:14.038Z,24.95
2023-02-22T12:41:14.102Z,26.93
2023-02-22T12:43:14.062Z,26.89
2023-02-22T12:45:13.992Z,26.14
2023-02-22T12:47:14.009Z,25.05
2023-02-22T12:49:13.896Z,24.98
2023-02-22T12:51:14.010Z,24.99
2023-02-22T12:53:14.074Z,24.98
2023-02-22T12:55:14.056Z,25.07
2023-02-22T12:57:14.046Z,24.93
2023-02-22T12:59:14.039Z,25.00
2023-02-22T13:01:14.046Z,24.99
2023-02-22T13:03:14.032Z,24.98
2023-02-22T13:05:13.964Z,26.83
2023-02-22T13:07:13.982Z,25.05
2023-02-22T13:09:13.895Z,26.81
2023-02-22T13:11:13.978Z,25.39
2023-02-22T13:13:14.084Z,25.47
2023-02-22T13:15:14.103Z,25.39
2023-02-22T13:17:14.079Z,25.33
2023-02-22T13:19:13.993Z,25.31
2023-02-22T13:21:14.443Z,25.32
2023-02-22T13:23:14.062Z,25.38
2023-02-22T13:25:14.072Z,25.40
2023-02-22T13:27:14.081Z,25.29
2023-02-22T13:29:14.111Z,25.27
2023-02-22T13:31:13.969Z,25.41
2023-02-22T13:33:14.013Z,25.26
2023-02-22T13:35:14.113Z,26.65
2023-02-22T13:37:14.099Z,24.98
2023-02-22T13:39:13.870Z,26.93
2023-02-22T13:41:14.271Z,25.40
2023-02-22T13:43:13.874Z,25.47
2023-02-22T13:45:14.100Z,25.45
2023-02-22T13:47:14.063Z,25.47
2023-02-22T13:49:14.079Z,25.34
2023-02-22T13:51:14.056Z,25.40
2023-02-22T13:53:14.113Z,25.38
2023-02-22T13:55:14.061Z,25.26
2023-02-22T13:57:14.117Z,26.08
2023-02-22T13:59:14.146Z,26.98
2023-02-22T14:01:13.873Z,25.01
2023-02-22T14:03:14.113Z,25.05
2023-02-22T14:05:14.159Z,25.12
2023-02-22T14:07:13.926Z,25.13
2023-02-22T14:09:13.961Z,25.12
2023-02-22T14:11:14.132Z,25.09
2023-02-22T14:13:14.101Z,25.14
2023-02-22T14:15:28.349Z,26.37
2023-02-22T14:17:13.889Z,26.93
2023-02-22T14:19:13.937Z,25.38
2023-02-22T14:21:14.101Z,25.07
2023-02-22T14:23:14.079Z,24.98
2023-02-22T14:25:20.413Z,25.05
2023-02-22T14:27:14.095Z,25.17
2023-02-22T14:29:14.179Z,25.04
2023-02-22T14:31:29.332Z,25.09
2023-02-22T14:33:14.124Z,25.12
2023-02-22T14:35:25.427Z,25.07
2023-02-22T14:37:14.009Z,25.10
2023-02-22T14:39:13.997Z,25.24
2023-02-22T14:41:13.904Z,25.39
2023-02-22T14:43:14.123Z,25.09
2023-02-22T14:45:14.075Z,25.13
2023-02-22T14:47:14.116Z,25.12
2023-02-22T14:49:14.145Z,25.10
2023-02-22T14:51:21.369Z,25.12
2023-02-22T14:53:14.189Z,25.08
2023-02-22T14:55:13.956Z,24.79
2023-02-22T14:57:14.182Z,24.53
2023-02-22T14:59:13.962Z,24.35
2023-02-22T15:01:14.195Z,24.66
2023-02-22T15:03:13.956Z,25.37
2023-02-22T15:05:14.218Z,25.22
2023-02-22T15:07:14.181Z,25.18
2023-02-22T15:09:14.258Z,25.21
2023-02-22T15:11:14.310Z,25.10
2023-02-22T15:13:13.984Z,25.06
2023-02-22T15:15:14.151Z,25.05
2023-02-22T15:17:14.202Z,25.05
2023-02-22T15:19:13.974Z,24.95
2023-02-22T15:21:14.153Z,24.77
2023-02-22T15:23:14.034Z,24.65
2023-02-22T15:25:13.956Z,24.60
2023-02-22T15:27:14.029Z,24.52
2023-02-22T15:29:13.953Z,24.38
2023-02-22T15:31:13.974Z,24.41
2023-02-22T15:33:14.297Z,24.37
2023-02-22T15:35:14.149Z,24.38
2023-02-22T15:37:14.166Z,24.41
2023-02-22T15:39:14.226Z,24.37
2023-02-22T15:41:14.213Z,24.34
2023-02-22T15:43:14.153Z,24.35
2023-02-22T15:45:14.165Z,24.21
2023-02-22T15:47:14.231Z,24.16
2023-02-22T15:49:14.227Z,24.10
2023-02-22T15:51:14.268Z,24.10
2023-02-22T15:53:14.234Z,24.05
2023-02-22T15:55:14.269Z,23.98
2023-02-22T15:57:14.011Z,23.95
2023-02-22T15:59:14.258Z,23.96
2023-02-22T16:01:14.346Z,23.96
2023-02-22T16:03:14.243Z,23.91
2023-02-22T16:05:14.032Z,23.51
2023-02-22T16:07:14.047Z,23.56
2023-02-22T16:09:14.229Z,23.66
2023-02-22T16:11:14.073Z,23.81
2023-02-22T16:13:22.320Z,23.79
2023-02-22T16:15:14.219Z,23.81
2023-02-22T16:17:14.049Z,23.85
2023-02-22T16:19:14.270Z,23.90
2023-02-22T16:21:14.275Z,23.82
2023-02-22T16:23:14.270Z,24.43
2023-02-22T16:25:14.296Z,23.82
2023-02-22T16:27:14.232Z,23.82
2023-02-22T16:29:14.078Z,23.81
2023-02-22T16:31:14.360Z,23.81
2023-02-22T16:33:14.017Z,23.73
2023-02-22T16:35:14.249Z,23.81
2023-02-22T16:37:14.243Z,23.70
2023-02-22T16:39:14.271Z,23.77
2023-02-22T16:41:14.342Z,23.69
2023-02-22T16:43:14.042Z,23.71
2023-02-22T16:45:14.304Z,23.69
2023-02-22T16:47:14.066Z,23.66
2023-02-22T16:49:14.345Z,23.67
2023-02-22T16:51:14.240Z,23.64
2023-02-22T16:53:14.292Z,23.65
2023-02-22T16:55:14.326Z,23.68
2023-02-22T16:57:14.320Z,23.68
2023-02-22T16:59:14.193Z,23.63
2023-02-22T17:01:14.334Z,23.63
2023-02-22T17:03:14.311Z,23.67
2023-02-22T17:05:14.359Z,23.59
2023-02-22T17:07:14.197Z,23.56
2023-02-22T17:09:14.335Z,23.59
2023-02-22T17:11:14.291Z,23.66
2023-02-22T17:13:23.100Z,23.61
2023-02-22T17:15:14.296Z,23.58
2023-02-22T17:17:14.262Z,23.54
2023-02-22T17:19:14.347Z,23.55
2023-02-22T17:21:14.285Z,23.57
2023-02-22T17:23:14.347Z,23.56
2023-02-22T17:25:14.316Z,23.58
2023-02-22T17:27:14.328Z,23.54
2023-02-22T17:29:14.357Z,23.56
2023-02-22T17:31:14.134Z,23.56
2023-02-22T17:33:14.148Z,23.54
2023-02-22T17:35:14.127Z,23.51
2023-02-22T17:37:14.121Z,23.53
2023-02-22T17:39:14.148Z,23.58
2023-02-22T17:41:14.078Z,23.54
2023-02-22T17:43:14.111Z,23.53
2023-02-22T17:45:14.322Z,23.52
2023-02-22T17:47:14.083Z,23.52
2023-02-22T17:49:14.363Z,23.41
2023-02-22T17:51:14.349Z,23.52
2023-02-22T17:53:14.372Z,23.66
2023-02-22T17:55:14.351Z,23.52
2023-02-22T17:57:14.154Z,23.53
2023-02-22T17:59:14.391Z,23.45
2023-02-22T18:01:14.115Z,23.51
2023-02-22T18:03:14.286Z,23.40
2023-02-22T18:05:14.359Z,23.49
2023-02-22T18:07:14.372Z,23.53
2023-02-22T18:09:14.365Z,23.45
2023-02-22T18:11:14.325Z,23.53
2023-02-22T18:13:14.344Z,23.49
2023-02-22T18:15:14.415Z,23.44
2023-02-22T18:17:14.380Z,23.47
2023-02-22T18:19:14.359Z,23.39
2023-02-22T18:21:14.410Z,23.42
2023-02-22T18:23:14.419Z,23.42
2023-02-22T18:25:14.410Z,23.42
2023-02-22T18:27:14.164Z,23.50
2023-02-22T18:29:14.420Z,23.39
2023-02-22T18:31:14.909Z,23.53
2023-02-22T18:33:14.404Z,23.40
2023-02-22T18:35:14.391Z,23.39
2023-02-22T18:37:14.394Z,23.42
2023-02-22T18:39:14.427Z,23.41
2023-02-22T18:41:14.278Z,23.39
2023-02-22T18:43:14.433Z,23.38
2023-02-22T18:45:14.416Z,23.39
2023-02-22T18:47:14.413Z,23.37
2023-02-22T18:49:14.420Z,23.37
2023-02-22T18:51:14.376Z,23.42
2023-02-22T18:53:14.427Z,23.25
2023-02-22T18:55:14.150Z,23.36
2023-02-22T18:57:14.272Z,23.29
2023-02-22T18:59:14.402Z,23.24
2023-02-22T19:01:14.365Z,25.51
2023-02-22T19:03:14.458Z,26.89
2023-02-22T19:05:14.456Z,26.98
2023-02-22T19:07:14.440Z,27.02
2023-02-22T19:09:14.448Z,27.03
2023-02-22T19:11:14.438Z,27.09
2023-02-22T19:13:14.423Z,27.17
2023-02-22T19:15:14.427Z,27.01
2023-02-22T19:17:14.288Z,27.08
2023-02-22T19:19:14.467Z,27.09
2023-02-22T19:21:14.453Z,27.16
2023-02-22T19:23:14.299Z,27.17
2023-02-22T19:25:14.495Z,27.05
2023-02-22T19:27:14.459Z,27.08
2023-02-22T19:29:14.391Z,25.50
2023-02-22T19:31:14.601Z,25.46
2023-02-22T19:33:14.195Z,25.52
2023-02-22T19:35:14.410Z,25.52
2023-02-22T19:37:14.338Z,25.44
2023-02-22T19:39:14.314Z,25.52
2023-02-22T19:41:14.440Z,25.50
2023-02-22T19:43:14.526Z,25.52
2023-02-22T19:45:14.491Z,25.51
2023-02-22T19:47:14.270Z,25.56
2023-02-22T19:49:14.312Z,25.50
2023-02-22T19:51:14.481Z,25.52
2023-02-22T19:53:14.518Z,25.42
2023-02-22T19:55:14.473Z,25.51
2023-02-22T19:57:14.477Z,25.54
2023-02-22T19:59:14.469Z,25.40
2023-02-22T20:01:14.453Z,25.50
2023-02-22T20:03:14.572Z,25.46
2023-02-22T20:05:14.496Z,25.50
2023-02-22T20:07:14.454Z,25.53
2023-02-22T20:09:14.444Z,25.47
2023-02-22T20:11:14.493Z,25.49
2023-02-22T20:13:14.470Z,25.47
2023-02-22T20:15:14.344Z,25.14
2023-02-22T20:17:14.246Z,25.46
2023-02-22T20:19:14.525Z,25.46
2023-02-22T20:21:14.530Z,25.52
2023-02-22T20:23:14.497Z,25.54
2023-02-22T20:25:14.393Z,25.47
2023-02-22T20:27:14.310Z,25.49
2023-02-22T20:29:14.271Z,25.50
2023-02-22T20:31:14.524Z,25.52
2023-02-22T20:33:14.538Z,25.39
2023-02-22T20:35:14.530Z,25.52
2023-02-22T20:37:14.180Z,25.49
2023-02-22T20:39:14.541Z,25.52
2023-02-22T20:41:14.281Z,25.49
2023-02-22T20:43:14.361Z,25.49
2023-02-22T20:45:14.331Z,25.52
2023-02-22T20:47:14.236Z,25.52
2023-02-22T20:49:14.273Z,25.52
2023-02-22T20:51:14.330Z,25.51
2023-02-22T20:53:14.582Z,25.44
2023-02-22T20:55:14.493Z,25.41
2023-02-22T20:57:14.491Z,25.43
2023-02-22T20:59:14.417Z,25.47
2023-02-22T21:01:14.663Z,25.51
2023-02-22T21:03:14.592Z,25.52
2023-02-22T21:05:14.567Z,25.53
2023-02-22T21:07:14.384Z,25.51
2023-02-22T21:09:14.384Z,25.53
2023-02-22T21:11:14.620Z,25.49
2023-02-22T21:13:14.574Z,25.45
2023-02-22T21:15:14.525Z,25.52
2023-02-22T21:17:14.399Z,25.52
2023-02-22T21:19:14.586Z,25.52
2023-02-22T21:21:14.397Z,25.56
2023-02-22T21:23:14.622Z,25.53
2023-02-22T21:25:14.519Z,25.50
2023-02-22T21:27:14.532Z,25.52
2023-02-22T21:29:14.585Z,25.50
2023-02-22T21:31:14.778Z,25.52
2023-02-22T21:33:14.601Z,25.54
2023-02-22T21:35:14.572Z,25.55
2023-02-22T21:37:14.430Z,25.52
2023-02-22T21:39:14.591Z,25.53
2023-02-22T21:41:14.359Z,25.49
2023-02-22T21:43:14.540Z,25.47
2023-02-22T21:45:14.402Z,25.52
2023-02-22T21:47:14.537Z,25.51
2023-02-22T21:49:14.544Z,25.52
2023-02-22T21:51:14.594Z,25.52
2023-02-22T21:53:14.434Z,25.47
2023-02-22T21:55:14.623Z,25.50
2023-02-22T21:57:14.334Z,25.44
2023-02-22T21:59:14.660Z,25.52
2023-02-22T22:01:14.648Z,25.49
2023-02-22T22:03:14.560Z,25.50
2023-02-22T22:05:14.602Z,25.46
2023-02-22T22:07:14.652Z,25.52
2023-02-22T22:09:14.648Z,25.42
2023-02-22T22:11:14.380Z,25.42
2023-02-22T22:13:14.381Z,25.45
2023-02-22T22:15:14.522Z,25.44
2023-02-22T22:17:14.651Z,25.45
2023-02-22T22:19:14.800Z,25.47
2023-02-22T22:21:14.750Z,25.50
2023-02-22T22:23:14.722Z,25.46
2023-02-22T22:25:14.637Z,25.47
2023-02-22T22:27:14.430Z,25.44
2023-02-22T22:29:14.389Z,25.52
2023-02-22T22:31:14.746Z,25.52
2023-02-22T22:33:14.382Z,25.47
2023-02-22T22:35:14.350Z,25.51
2023-02-22T22:37:14.590Z,25.52
2023-02-22T22:39:14.470Z,25.47
2023-02-22T22:41:14.676Z,25.45
2023-02-22T22:43:14.588Z,25.52
2023-02-22T22:45:14.464Z,25.43
2023-02-22T22:47:14.606Z,25.42
2023-02-22T22:49:14.451Z,25.51
2023-02-22T22:51:14.657Z,25.40
2023-02-22T22:53:14.490Z,25.35
2023-02-22T22:55:14.457Z,25.45
2023-02-22T22:57:14.645Z,25.51
2023-02-22T22:59:14.630Z,25.44
2023-02-22T23:01:14.686Z,25.43
2023-02-22T23:03:14.738Z,25.49
2023-02-22T23:05:14.670Z,25.45
2023-02-22T23:07:14.613Z,25.52
2023-02-22T23:09:14.612Z,25.49
2023-02-22T23:11:14.426Z,25.44
2023-02-22T23:13:14.502Z,25.57
2023-02-22T23:15:14.461Z,25.51
2023-02-22T23:17:14.530Z,25.45
2023-02-22T23:19:14.681Z,25.49
2023-02-22T23:21:14.633Z,25.50
2023-02-22T23:23:14.482Z,25.52
2023-02-22T23:25:14.701Z,25.50
2023-02-22T23:27:14.660Z,25.44
2023-02-22T23:29:14.731Z,25.51
2023-02-22T23:31:14.582Z,25.45
2023-02-22T23:33:14.710Z,25.54
2023-02-22T23:35:14.663Z,25.47
2023-02-22T23:37:14.715Z,25.47
2023-02-22T23:39:14.696Z,25.45
2023-02-22T23:41:14.737Z,25.46
2023-02-22T23:43:14.713Z,25.53
2023-02-22T23:45:14.612Z,25.52
2023-02-22T23:47:14.637Z,25.45
2023-02-22T23:49:14.730Z,25.51
2023-02-22T23:51:14.703Z,25.42
2023-02-22T23:53:14.752Z,25.46
2023-02-22T23:55:14.712Z,25.52
2023-02-22T23:57:14.694Z,25.50
2023-02-22T23:59:14.732Z,25.53
